createdAt,value
2023-02-11T00:05:07.660Z,-1.37
2023-02-11T00:10:16.567Z,-1.31
2023-02-11T00:15:25.652Z,-1.06
2023-02-11T00:20:34.779Z,-0.88
2023-02-11T00:25:43.771Z,-0.75
2023-02-11T00:30:53.284Z,-0.62
2023-02-11T00:36:02.329Z,-0.44
2023-02-11T00:41:11.327Z,-0.19
2023-02-11T00:46:20.575Z,-0.13
2023-02-11T00:51:29.495Z,-0.19
2023-02-11T00:56:38.434Z,-0.19
2023-02-11T01:01:47.567Z,-0.31
2023-02-11T01:06:56.565Z,-0.44
2023-02-11T01:12:05.576Z,-0.5
2023-02-11T01:17:14.448Z,-0.62
2023-02-11T01:22:23.464Z,-0.62
2023-02-11T01:27:32.471Z,-0.5
2023-02-11T01:32:41.638Z,-0.25
2023-02-11T01:37:50.722Z,-0.06
2023-02-11T01:42:59.777Z,0.13
2023-02-11T01:48:08.630Z,0.19
2023-02-11T01:53:17.785Z,0.25
2023-02-11T01:58:26.733Z,0.31
2023-02-11T02:03:35.702Z,0.37
2023-02-11T02:08:44.706Z,0.25
2023-02-11T02:13:53.623Z,0.13
2023-02-11T02:19:02.671Z,0.06
2023-02-11T02:24:14.082Z,-0.13
2023-02-11T02:29:20.453Z,-0.13
2023-02-11T02:34:29.376Z,-0.25
2023-02-11T02:39:38.269Z,-0.19
2023-02-11T02:44:47.123Z,0.06
2023-02-11T02:49:56.120Z,0.19
2023-02-11T02:55:05.272Z,0.19
2023-02-11T03:00:14.173Z,0.13
2023-02-11T03:05:23.248Z,-0.06
2023-02-11T03:10:32.226Z,-0.13
2023-02-11T03:15:41.115Z,0.06
2023-02-11T03:20:50.089Z,0.13
2023-02-11T03:25:59.278Z,0.37
2023-02-11T03:31:11.097Z,0.25
2023-02-11T03:36:20.122Z,0.19
2023-02-11T03:41:29.001Z,0.19
2023-02-11T03:46:37.794Z,0.06
2023-02-11T03:51:46.929Z,-0.06
2023-02-11T03:56:55.989Z,-0.19
2023-02-11T04:02:04.990Z,-0.13
2023-02-11T04:07:14.133Z,0.06
2023-02-11T04:12:23.319Z,0.25
2023-02-11T04:17:32.380Z,0.5
2023-02-11T04:22:41.384Z,0.5
2023-02-11T04:27:50.436Z,0.37
2023-02-11T04:32:59.402Z,0.31
2023-02-11T04:38:08.434Z,0.19
2023-02-11T04:48:18.337Z,0
2023-02-11T04:53:27.385Z,-0.13
2023-02-11T04:58:36.282Z,-0.31
2023-02-11T05:03:45.349Z,-0.37
2023-02-11T05:08:54.250Z,-0.56
2023-02-11T05:14:03.148Z,-0.69
2023-02-11T05:19:12.081Z,-0.94
2023-02-11T05:24:21.000Z,-0.81
2023-02-11T05:29:29.876Z,-0.69
2023-02-11T05:39:37.085Z,-0.81
2023-02-11T05:44:46.585Z,-0.44
2023-02-11T05:49:55.286Z,-0.37
2023-02-11T05:55:04.462Z,-0.25
2023-02-11T06:00:13.419Z,-0.19
2023-02-11T06:05:22.401Z,-0.13
2023-02-11T06:10:31.306Z,-0.13
2023-02-11T06:15:40.163Z,-0.19
2023-02-11T06:20:49.121Z,-0.25
2023-02-11T06:25:58.276Z,-0.31
2023-02-11T06:36:16.229Z,-0.5
2023-02-11T06:41:28.070Z,-0.69
2023-02-11T06:46:37.187Z,-0.75
2023-02-11T06:51:46.133Z,-0.81
2023-02-11T06:56:55.247Z,-0.88
2023-02-11T07:12:00.705Z,-0.69
2023-02-11T07:17:09.894Z,-0.69
2023-02-11T07:22:18.992Z,-0.62
2023-02-11T07:27:28.105Z,-0.56
2023-02-11T07:32:37.103Z,-0.5
2023-02-11T07:37:46.196Z,-0.37
2023-02-11T07:42:55.299Z,-0.31
2023-02-11T07:48:04.149Z,-0.25
2023-02-11T07:53:13.352Z,-0.13
2023-02-11T07:58:22.591Z,0.13
2023-02-11T08:03:31.863Z,0.5
2023-02-11T08:08:41.210Z,0.81
2023-02-11T08:13:50.682Z,1.12
2023-02-11T08:19:00.099Z,1.37
2023-02-11T08:24:09.592Z,1.69
2023-02-11T08:29:19.492Z,1.94
2023-02-11T08:34:28.636Z,2.44
2023-02-11T08:44:45.541Z,2.19
2023-02-11T08:49:54.422Z,2.12
2023-02-11T08:55:03.357Z,2.37
2023-02-11T09:00:12.357Z,2.44
2023-02-11T09:05:21.735Z,2.56
2023-02-11T09:10:30.912Z,2.94
2023-02-11T09:15:41.183Z,3.69
2023-02-11T09:20:50.191Z,4.12
2023-02-11T09:26:00.349Z,5.62
2023-02-11T09:31:10.195Z,6.12
2023-02-11T09:36:19.327Z,6.56
2023-02-11T09:41:28.056Z,6.81
2023-02-11T09:46:37.298Z,7.19
2023-02-11T09:51:45.256Z,6.25
2023-02-11T09:56:53.621Z,5.62
2023-02-11T10:02:02.440Z,5.87
2023-02-11T10:07:14.056Z,5.81
2023-02-11T10:12:23.269Z,6.06
2023-02-11T10:17:32.239Z,6.37
2023-02-11T10:22:43.930Z,6.44
2023-02-11T10:27:52.845Z,6.69
2023-02-11T10:33:02.000Z,6.81
2023-02-11T10:38:10.913Z,7
2023-02-11T10:43:37.074Z,7.5
2023-02-11T10:48:46.335Z,7.62
2023-02-11T10:53:55.606Z,7.81
2023-02-11T10:59:04.415Z,7.62
2023-02-11T11:04:13.159Z,7.25
2023-02-11T11:09:22.267Z,7.69
2023-02-11T11:14:35.166Z,8.5
2023-02-11T11:19:45.227Z,10
2023-02-11T11:24:54.136Z,9.31
2023-02-11T11:30:19.485Z,8.63
2023-02-11T11:35:28.554Z,8.56
2023-02-11T11:40:38.613Z,9.81
2023-02-11T11:45:47.786Z,10.19
2023-02-11T11:50:56.886Z,10.5
2023-02-11T11:56:05.601Z,10.69
2023-02-11T12:01:13.784Z,9.31
2023-02-11T12:06:22.435Z,9.19
2023-02-11T12:11:31.081Z,9.06
2023-02-11T12:16:40.440Z,9
2023-02-11T12:21:49.124Z,9.25
2023-02-11T12:26:58.761Z,9.06
2023-02-11T12:32:07.779Z,9.5
2023-02-11T12:37:16.681Z,10.31
2023-02-11T12:42:26.182Z,9.25
2023-02-11T12:47:35.195Z,10.44
2023-02-11T12:52:43.209Z,10.13
2023-02-11T12:57:51.599Z,9.13
2023-02-11T13:03:00.446Z,8.94
2023-02-11T13:08:09.268Z,8.44
2023-02-11T13:13:18.118Z,8.63
2023-02-11T13:18:27.163Z,8.38
2023-02-11T13:23:36.133Z,8.38
2023-02-11T13:28:45.329Z,8.63
2023-02-11T13:33:54.355Z,8.44
2023-02-11T13:39:03.138Z,8.25
2023-02-11T13:44:12.137Z,8.19
2023-02-11T13:49:20.970Z,8.25
2023-02-11T13:54:30.002Z,8.13
2023-02-11T13:59:38.884Z,8.19
2023-02-11T14:04:49.100Z,8
2023-02-11T14:09:56.763Z,7.87
2023-02-11T14:15:07.699Z,8.06
2023-02-11T14:20:14.791Z,8.06
2023-02-11T14:25:23.801Z,7.94
2023-02-11T14:30:32.682Z,8
2023-02-11T14:35:41.714Z,8.19
2023-02-11T14:40:50.920Z,8
2023-02-11T14:45:59.716Z,7.87
2023-02-11T14:56:17.539Z,7.5
2023-02-11T15:01:26.737Z,7.44
2023-02-11T15:06:35.695Z,7.37
2023-02-11T15:16:53.659Z,7.25
2023-02-11T15:27:11.485Z,7.19
2023-02-11T15:32:20.489Z,7.12
2023-02-11T15:37:29.373Z,7
2023-02-11T15:42:51.991Z,6.94
2023-02-11T15:47:47.422Z,6.87
2023-02-11T15:52:56.303Z,6.81
2023-02-11T15:58:05.211Z,6.69
2023-02-11T16:08:26.360Z,6.62
2023-02-11T16:13:35.108Z,6.56
2023-02-11T16:18:49.440Z,6.5
2023-02-11T16:23:53.142Z,6.44
2023-02-11T16:29:02.079Z,6.44
2023-02-11T16:34:11.114Z,6.37
2023-02-11T16:39:20.145Z,6.31
2023-02-11T16:44:29.055Z,6.25
2023-02-11T16:49:38.019Z,6.19
2023-02-11T16:54:47.160Z,6.19
2023-02-11T17:10:03.436Z,6.06
2023-02-11T17:15:12.518Z,6.06
2023-02-11T17:20:21.469Z,6.06
2023-02-11T17:25:30.636Z,5.94
2023-02-11T17:35:48.745Z,5.81
2023-02-11T17:40:57.675Z,5.75
2023-02-11T17:46:06.778Z,5.69
2023-02-11T17:51:15.799Z,5.62
2023-02-11T17:56:24.779Z,5.62
2023-02-11T18:01:33.872Z,5.56
2023-02-11T18:06:42.885Z,5.56
2023-02-11T18:11:51.890Z,5.5
2023-02-11T18:17:00.925Z,5.5
2023-02-11T18:22:09.883Z,5.5
2023-02-11T18:27:18.957Z,5.5
2023-02-11T18:32:27.912Z,5.5
2023-02-11T18:37:36.901Z,5.44
2023-02-11T18:42:46.027Z,5.44
2023-02-11T18:47:54.997Z,5.44
2023-02-11T18:58:12.776Z,5.37
2023-02-11T19:08:31.035Z,5.31
2023-02-11T19:13:40.043Z,5.31
2023-02-11T19:23:58.089Z,5.25
2023-02-11T19:29:07.146Z,5.25
2023-02-11T19:49:10.601Z,5.19
2023-02-11T19:54:19.477Z,5.19
2023-02-11T20:04:37.743Z,5.19
2023-02-11T20:09:46.595Z,5.12
2023-02-11T20:14:55.636Z,5.12
2023-02-11T20:20:04.715Z,5.12
2023-02-11T20:30:22.513Z,5.12
2023-02-11T20:35:31.656Z,5.06
2023-02-11T20:40:40.571Z,5.06
2023-02-11T20:45:50.039Z,5.06
2023-02-11T20:50:58.571Z,5.12
2023-02-11T20:56:07.552Z,5.12
2023-02-11T21:01:16.583Z,5.12
2023-02-11T21:06:25.327Z,5.06
2023-02-11T21:11:34.093Z,5.12
2023-02-11T21:16:46.096Z,5.12
2023-02-11T21:21:55.259Z,5.12
2023-02-11T21:27:04.160Z,5.06
2023-02-11T21:32:13.159Z,5.06
2023-02-11T21:37:22.157Z,5.06
2023-02-11T21:42:31.116Z,5.06
2023-02-11T21:47:40.115Z,5.06
2023-02-11T21:52:49.316Z,5.12
2023-02-11T21:57:58.128Z,5.12
2023-02-11T22:03:07.238Z,5.12
2023-02-11T22:13:25.112Z,5.06
2023-02-11T22:18:33.999Z,5.12
2023-02-11T22:23:43.073Z,5.12
2023-02-11T22:28:52.184Z,5.12
2023-02-11T22:34:01.258Z,5.12
2023-02-11T22:39:10.193Z,5.12
2023-02-11T22:44:19.263Z,5.12
2023-02-11T22:54:37.218Z,5.25
2023-02-11T22:59:46.270Z,5.31
2023-02-11T23:04:55.066Z,5.25
2023-02-11T23:10:04.307Z,5.19
2023-02-11T23:15:13.440Z,5.12
2023-02-11T23:20:22.431Z,5.12
2023-02-11T23:25:31.349Z,5.12
2023-02-11T23:30:40.422Z,5.12
2023-02-11T23:35:49.378Z,5.12
2023-02-11T23:40:58.405Z,5.06
2023-02-11T23:46:07.434Z,5.06
2023-02-11T23:51:16.416Z,5.12
2023-02-11T23:56:25.423Z,5.12
